Time;durP1;ratioP1;P1;durP2;ratioP2;P2;SDS_P1;SDS_P2;PMS_P1;PMS_P2;Temp;Humidity;BMP_temperature;BMP_pressure;BME280_temperature;BME280_humidity;BME280_pressure;Samples;Min_cycle;Max_cycle;Signal;HPM_P1;HPM_P2
2022/06/05 00:01:27;;;;;;;;;;;;;;;16.86;78.68;101515.56;5014675;28;19984;-75
2022/06/05 00:03:59;;;;;;;;;;;;;;;16.80;79.15;101511.63;5032418;28;20448;-74
2022/06/05 00:06:29;;;;;;;;;;;;;;;16.75;79.36;101512.75;5020968;28;19913;-73
2022/06/05 00:09:07;;;;;;;;;;;;;;;16.80;79.28;101517.06;5005785;28;19941;-74
2022/06/05 00:11:52;;;;;;;;;;;;;;;16.74;79.25;101529.44;5018026;28;19913;-73
2022/06/05 00:14:18;;;;;;;;;;;;;;;16.68;79.49;101520.06;5007501;28;19917;-74
2022/06/05 00:16:44;;;;;;;;;;;;;;;16.65;79.45;101513.41;5031512;28;19913;-73
2022/06/05 00:19:09;;;;;;;;;;;;;;;16.55;79.80;101510.63;5026670;28;19917;-73
2022/06/05 00:21:35;;;;;;;;;;;;;;;16.61;79.63;101514.53;5000096;28;19949;-73
2022/06/05 00:24:00;;;;;;;;;;;;;;;16.58;79.91;101509.84;5012692;28;19985;-74
2022/06/05 00:26:29;;;;;;;;;;;;;;;16.56;79.83;101525.78;5012089;28;19913;-74
2022/06/05 00:29:00;;;;;;;;;;;;;;;16.48;80.27;101513.22;5012899;28;19913;-74
2022/06/05 00:31:30;;;;;;;;;;;;;;;16.49;80.24;101512.09;5010356;28;19928;-72
2022/06/05 00:33:57;;;;;;;;;;;;;;;16.46;80.27;101499.22;5025571;28;19976;-74
2022/06/05 00:36:41;;;;;;;;;;;;;;;16.49;80.25;101490.34;5022363;28;19913;-74
2022/06/05 00:39:13;;;;;;;;;;;;;;;16.45;80.46;101492.22;5010996;28;19918;-74
2022/06/05 00:41:50;;;;;;;;;;;;;;;16.40;80.74;101489.81;5013616;28;19917;-74
2022/06/05 00:44:19;;;;;;;;;;;;;;;16.40;80.72;101492.53;5011767;28;19913;-73
2022/06/05 00:46:45;;;;;;;;;;;;;;;16.42;80.79;101493.75;5018999;23;19949;-66
2022/06/05 00:49:11;;;;;;;;;;;;;;;16.35;81.04;101498.31;5005049;28;20373;-66
2022/06/05 00:51:36;;;;;;;;;;;;;;;16.24;81.78;101485.41;5005140;28;19921;-67
2022/06/05 00:54:02;;;;;;;;;;;;;;;16.21;81.42;101488.88;5004673;28;19965;-66
2022/06/05 00:56:28;;;;;;;;;;;;;;;16.22;81.45;101478.75;5010611;28;20393;-67
2022/06/05 00:58:53;;;;;;;;;;;;;;;16.27;80.95;101476.50;5011450;28;19960;-66
2022/06/05 01:01:19;;;;;;;;;;;;;;;16.20;81.25;101484.56;5008337;28;19917;-66
2022/06/05 01:03:45;;;;;;;;;;;;;;;16.14;81.35;101479.88;5011033;28;19925;-67
2022/06/05 01:06:11;;;;;;;;;;;;;;;16.14;81.31;101474.44;5004706;28;19917;-67
2022/06/05 01:08:36;;;;;;;;;;;;;;;16.12;81.21;101477.50;5006452;28;19917;-66
2022/06/05 01:11:13;;;;;;;;;;;;;;;16.07;81.41;101466.97;5009521;28;20063;-66
2022/06/05 01:13:48;;;;;;;;;;;;;;;16.03;81.53;101463.44;5007508;28;19917;-66
2022/06/05 01:16:13;;;;;;;;;;;;;;;15.97;81.98;101464.91;5005467;28;20293;-67
2022/06/05 01:18:49;;;;;;;;;;;;;;;15.98;82.05;101463.78;5008940;28;19917;-66
2022/06/05 01:21:38;;;;;;;;;;;;;;;15.90;82.05;101466.75;5011110;28;19917;-66
2022/06/05 01:24:10;;;;;;;;;;;;;;;15.89;82.19;101459.78;5001264;28;19921;-66
2022/06/05 01:26:38;;;;;;;;;;;;;;;15.83;82.63;101456.59;5010751;28;19921;-67
2022/06/05 01:29:07;;;;;;;;;;;;;;;15.77;82.51;101455.38;5010936;28;19921;-66
2022/06/05 01:31:37;;;;;;;;;;;;;;;15.80;82.15;101461.97;5008138;28;19944;-66
2022/06/05 01:34:12;;;;;;;;;;;;;;;15.75;82.29;101462.31;5007464;28;19921;-67
2022/06/05 01:36:58;;;;;;;;;;;;;;;15.72;82.33;101455.69;4990919;28;19917;-67
2022/06/05 01:39:36;;;;;;;;;;;;;;;15.67;82.73;101447.09;4999609;28;19921;-66
2022/06/05 01:42:06;;;;;;;;;;;;;;;15.62;82.87;101437.31;4998088;28;20131;-66
2022/06/05 01:44:41;;;;;;;;;;;;;;;15.62;83.03;101441.97;5003537;28;19924;-67
2022/06/05 01:47:10;;;;;;;;;;;;;;;15.61;83.04;101438.47;4998500;28;20044;-66
2022/06/05 01:49:41;;;;;;;;;;;;;;;15.59;83.22;101434.56;4996445;28;19936;-67
2022/06/05 01:52:26;;;;;;;;;;;;;;;15.57;83.54;101434.94;4994511;28;19920;-67
2022/06/05 01:54:59;;;;;;;;;;;;;;;15.57;83.59;101434.94;4997822;28;20001;-67
2022/06/05 01:57:25;;;;;;;;;;;;;;;15.53;84.21;101436.81;5007255;28;19914;-67
2022/06/05 01:59:58;;;;;;;;;;;;;;;15.55;84.06;101433.72;5006815;28;20340;-67
2022/06/05 02:02:33;;;;;;;;;;;;;;;15.53;84.08;101417.03;5000257;28;19967;-67
2022/06/05 02:05:05;;;;;;;;;;;;;;;15.55;83.94;101417.44;5022327;28;19914;-67
2022/06/05 02:07:39;;;;;;;;;;;;;;;15.55;83.75;101425.59;5007871;28;20380;-66
2022/06/05 02:10:07;;;;;;;;;;;;;;;15.48;84.21;101423.59;5009531;28;20381;-67
2022/06/05 02:12:33;;;;;;;;;;;;;;;15.48;84.04;101420.06;5002293;28;20301;-67
2022/06/05 02:14:59;;;;;;;;;;;;;;;15.48;83.84;101425.50;5008090;28;19914;-67
2022/06/05 02:17:25;;;;;;;;;;;;;;;15.50;84.13;101434.84;5006455;28;19913;-67
2022/06/05 02:19:50;;;;;;;;;;;;;;;15.48;84.23;101429.00;5006880;28;20385;-67
2022/06/05 02:22:23;;;;;;;;;;;;;;;15.44;84.54;101420.03;5010267;28;20739;-67
2022/06/05 02:24:49;;;;;;;;;;;;;;;15.35;84.54;101428.41;5000004;28;19975;-69
2022/06/05 02:27:19;;;;;;;;;;;;;;;15.30;85.24;101422.53;5007449;28;20298;-67
2022/06/05 02:29:45;;;;;;;;;;;;;;;15.29;85.08;101429.13;5008641;28;19921;-67
2022/06/05 02:32:19;;;;;;;;;;;;;;;15.34;85.07;101426.88;5007583;28;19975;-67
2022/06/05 02:34:49;;;;;;;;;;;;;;;15.31;85.26;101414.00;5009335;28;19928;-67
2022/06/05 02:37:24;;;;;;;;;;;;;;;15.26;85.50;101406.19;5009886;28;19930;-67
2022/06/05 02:39:52;;;;;;;;;;;;;;;15.27;85.62;101412.41;5007788;28;19921;-67
2022/06/05 02:42:18;;;;;;;;;;;;;;;15.20;86.03;101406.88;5009669;28;19913;-67
2022/06/05 02:45:02;;;;;;;;;;;;;;;15.20;85.82;101412.31;5009447;28;19917;-66
2022/06/05 02:47:31;;;;;;;;;;;;;;;15.23;85.51;101422.44;4997715;28;19935;-66
2022/06/05 02:50:00;;;;;;;;;;;;;;;15.16;86.01;101425.03;5009316;28;19914;-66
2022/06/05 02:52:25;;;;;;;;;;;;;;;15.13;86.14;101423.84;5007468;28;20278;-67
2022/06/05 02:54:55;;;;;;;;;;;;;;;15.13;86.27;101432.00;5004712;28;19917;-67
2022/06/05 02:57:21;;;;;;;;;;;;;;;15.09;85.84;101427.66;5009397;28;19941;-67
2022/06/05 02:59:46;;;;;;;;;;;;;;;15.10;85.87;101418.34;5004393;28;20070;-67
2022/06/05 03:04:55;;;;;;;;;;;;;;;15.09;85.28;101408.66;5012349;28;19917;-66
2022/06/05 03:07:21;;;;;;;;;;;;;;;15.02;85.82;101412.03;5013787;28;19917;-67
2022/06/05 03:09:47;;;;;;;;;;;;;;;14.98;86.16;101421.31;5006660;28;19913;-67
2022/06/05 03:12:13;;;;;;;;;;;;;;;14.98;86.03;101413.16;5012234;28;20488;-66
2022/06/05 03:14:38;;;;;;;;;;;;;;;14.99;85.87;101409.28;5008912;28;20003;-67
2022/06/05 03:17:04;;;;;;;;;;;;;;;14.99;86.00;101406.56;5012967;28;19928;-67
2022/06/05 03:19:30;;;;;;;;;;;;;;;14.98;86.28;101410.44;5013597;28;19948;-67
2022/06/05 03:21:55;;;;;;;;;;;;;;;14.93;86.46;101414.25;5010090;28;20467;-67
2022/06/05 03:24:20;;;;;;;;;;;;;;;14.97;86.28;101422.44;5009108;28;20389;-67
2022/06/05 03:26:46;;;;;;;;;;;;;;;14.93;86.43;101416.16;5011988;28;20047;-67
2022/06/05 03:29:11;;;;;;;;;;;;;;;14.92;86.38;101417.34;5012983;28;19921;-67
2022/06/05 03:31:36;;;;;;;;;;;;;;;14.91;86.16;101413.81;5012411;28;19914;-67
2022/06/05 03:34:02;;;;;;;;;;;;;;;14.88;86.88;101413.78;5011897;28;19922;-67
2022/06/05 03:36:28;;;;;;;;;;;;;;;14.93;86.42;101402.59;5012226;28;20003;-67
2022/06/05 03:38:53;;;;;;;;;;;;;;;14.89;86.84;101409.91;5007224;28;20067;-67
2022/06/05 03:41:19;;;;;;;;;;;;;;;14.91;86.31;101411.13;5012013;28;19925;-66
2022/06/05 03:43:45;;;;;;;;;;;;;;;14.93;86.71;101410.75;5011900;28;20003;-66
2022/06/05 03:46:11;;;;;;;;;;;;;;;14.93;86.53;101418.88;5003084;28;19924;-67
2022/06/05 03:48:37;;;;;;;;;;;;;;;14.91;86.80;101418.47;5010922;28;19939;-67
2022/06/05 03:51:10;;;;;;;;;;;;;;;14.97;86.40;101417.00;5012705;28;19913;-67
2022/06/05 03:53:36;;;;;;;;;;;;;;;14.99;86.34;101409.28;5006983;28;19924;-67
2022/06/05 03:56:06;;;;;;;;;;;;;;;14.95;86.87;101409.25;5010342;28;20384;-66
2022/06/05 03:58:31;;;;;;;;;;;;;;;14.92;87.19;101409.19;5013072;28;20491;-66
2022/06/05 04:00:57;;;;;;;;;;;;;;;14.94;87.49;101415.03;5012429;28;20012;-66
2022/06/05 04:03:22;;;;;;;;;;;;;;;14.95;87.28;101428.22;5007816;28;20270;-66
2022/06/05 04:05:47;;;;;;;;;;;;;;;14.97;86.91;101417.00;5010171;28;19917;-66
2022/06/05 04:08:17;;;;;;;;;;;;;;;14.99;87.00;101410.06;5011746;28;20297;-66
2022/06/05 04:10:42;;;;;;;;;;;;;;;14.94;87.66;101412.31;5012305;28;20366;-66
2022/06/05 04:13:08;;;;;;;;;;;;;;;15.01;87.68;101415.13;5006708;28;19913;-66
2022/06/05 04:15:37;;;;;;;;;;;;;;;15.02;87.58;101406.63;5009310;28;19919;-66
2022/06/05 04:18:02;;;;;;;;;;;;;;;15.08;87.54;101409.78;5011258;28;19920;-66
2022/06/05 04:20:28;;;;;;;;;;;;;;;15.08;87.94;101410.59;5009502;28;19925;-66
2022/06/05 04:22:53;;;;;;;;;;;;;;;15.16;88.07;101416.91;5004009;28;19913;-66
2022/06/05 04:25:19;;;;;;;;;;;;;;;15.14;88.06;101408.34;5009061;28;20021;-66
2022/06/05 04:27:44;;;;;;;;;;;;;;;15.16;87.89;101412.25;5012658;28;20354;-66
2022/06/05 04:30:10;;;;;;;;;;;;;;;15.15;88.37;101407.19;5006971;28;19936;-66
2022/06/05 04:32:35;;;;;;;;;;;;;;;15.21;88.64;101405.75;5010910;28;19936;-66
2022/06/05 04:35:01;;;;;;;;;;;;;;;15.24;88.84;101403.06;5006829;28;19956;-67
2022/06/05 04:37:26;;;;;;;;;;;;;;;15.26;88.70;101394.56;5003991;28;19960;-66
2022/06/05 04:39:51;;;;;;;;;;;;;;;15.21;89.25;101397.59;5010584;28;19921;-66
2022/06/05 04:42:17;;;;;;;;;;;;;;;15.26;89.67;101394.56;5007447;28;20333;-66
2022/06/05 04:44:42;;;;;;;;;;;;;;;15.34;89.63;101382.66;5007340;28;19925;-66
2022/06/05 04:47:08;;;;;;;;;;;;;;;15.39;89.72;101371.44;5009955;28;19914;-66
2022/06/05 04:49:35;;;;;;;;;;;;;;;15.43;89.53;101369.59;5012259;28;19968;-66
2022/06/05 04:52:00;;;;;;;;;;;;;;;15.42;90.18;101375.41;5011308;28;20378;-66
2022/06/05 04:54:27;;;;;;;;;;;;;;;15.39;90.33;101371.44;5003801;28;19964;-67
2022/06/05 04:56:53;;;;;;;;;;;;;;;15.46;90.49;101379.72;5009878;28;19920;-66
2022/06/05 04:59:18;;;;;;;;;;;;;;;15.56;90.37;101376.38;5010589;28;19917;-66
2022/06/05 05:01:43;;;;;;;;;;;;;;;15.70;89.75;101376.50;5006532;28;19991;-66
2022/06/05 05:04:11;;;;;;;;;;;;;;;15.75;89.83;101372.69;5008974;28;20608;-66
2022/06/05 05:06:38;;;;;;;;;;;;;;;15.80;90.05;101359.53;5003826;28;20365;-66
2022/06/05 05:09:04;;;;;;;;;;;;;;;15.97;90.03;101358.94;5010571;28;20476;-66
2022/06/05 05:11:30;;;;;;;;;;;;;;;16.48;89.29;101359.03;5005785;28;19913;-66
2022/06/05 05:13:56;;;;;;;;;;;;;;;17.62;85.75;101362.00;5011145;28;19913;-66
2022/06/05 05:16:23;;;;;;;;;;;;;;;18.81;81.12;101364.03;5003572;28;19922;-66
2022/06/05 05:18:48;;;;;;;;;;;;;;;19.99;76.13;101360.47;5010822;28;19921;-66
2022/06/05 05:21:15;;;;;;;;;;;;;;;21.00;71.05;101355.25;5009452;28;20468;-66
2022/06/05 05:23:41;;;;;;;;;;;;;;;21.86;65.24;101370.28;5011466;28;20008;-67
2022/06/05 05:26:15;;;;;;;;;;;;;;;-144.12;100.00;72078.50;5008748;28;19914;-67
2022/06/05 05:28:41;;;;;;;;;;;;;;;-144.12;100.00;72078.50;5005396;28;19913;-67
2022/06/05 05:31:08;;;;;;;;;;;;;;;-144.12;100.00;72078.50;5004538;28;19968;-66
2022/06/05 05:33:34;;;;;;;;;;;;;;;24.03;55.92;101367.41;5010869;28;19914;-67
2022/06/05 05:35:59;;;;;;;;;;;;;;;24.45;54.30;101367.59;5009761;28;19913;-66
2022/06/05 05:38:24;;;;;;;;;;;;;;;24.94;52.16;101363.56;5011186;28;19909;-66
2022/06/05 05:43:34;;;;;;;;;;;;;;;25.51;51.69;101363.50;5009925;28;20378;-67
2022/06/05 05:45:59;;;;;;;;;;;;;;;25.92;50.05;101365.41;5005556;28;19968;-67
2022/06/05 05:48:24;;;;;;;;;;;;;;;25.88;50.24;101345.41;5008462;28;19953;-67
2022/06/05 05:50:50;;;;;;;;;;;;;;;26.25;49.01;101341.84;5006046;28;19913;-67
2022/06/05 05:53:15;;;;;;;;;;;;;;;26.45;48.32;101347.13;5008028;28;19920;-67
2022/06/05 05:55:42;;;;;;;;;;;;;;;26.61;47.01;101347.75;5005720;28;19967;-67
2022/06/05 05:58:07;;;;;;;;;;;;;;;26.83;46.63;101353.31;5025822;28;19971;-67
2022/06/05 06:00:33;;;;;;;;;;;;;;;26.58;46.18;101343.09;5010055;28;19925;-66
2022/06/05 06:02:58;;;;;;;;;;;;;;;26.52;46.99;101349.63;5010328;28;19913;-67
2022/06/05 06:05:24;;;;;;;;;;;;;;;26.34;47.94;101347.50;5004053;28;19913;-67
2022/06/05 06:07:49;;;;;;;;;;;;;;;26.28;47.56;101352.03;5010046;28;19921;-67
2022/06/05 06:10:15;;;;;;;;;;;;;;;26.20;47.77;101356.25;5010427;28;19927;-67
2022/06/05 06:12:41;;;;;;;;;;;;;;;26.16;47.54;101366.63;5009040;28;20314;-67
2022/06/05 06:15:07;;;;;;;;;;;;;;;26.03;48.00;101363.09;5007717;28;19926;-67
2022/06/05 06:17:32;;;;;;;;;;;;;;;25.64;49.32;101369.03;5010645;28;19917;-67
2022/06/05 06:19:58;;;;;;;;;;;;;;;25.55;49.04;101363.41;5021885;28;20412;-67
2022/06/05 06:22:23;;;;;;;;;;;;;;;25.24;49.17;101363.09;5008980;28;19952;-67
2022/06/05 06:24:48;;;;;;;;;;;;;;;25.10;48.33;101368.25;5008246;28;20000;-67
2022/06/05 06:27:14;;;;;;;;;;;;;;;24.95;50.14;101363.09;5007980;28;20000;-66
2022/06/05 06:29:39;;;;;;;;;;;;;;;24.91;49.01;101356.91;5008790;28;19992;-66
2022/06/05 06:32:05;;;;;;;;;;;;;;;24.82;49.20;101365.06;5007192;28;20243;-67
2022/06/05 06:34:30;;;;;;;;;;;;;;;24.73;49.50;101362.16;5002559;28;19920;-67
2022/06/05 06:36:57;;;;;;;;;;;;;;;24.54;49.25;101368.53;5008123;28;19913;-66
2022/06/05 06:39:23;;;;;;;;;;;;;;;24.41;49.40;101375.94;5014307;28;19964;-66
2022/06/05 06:41:49;;;;;;;;;;;;;;;24.10;50.29;101367.25;5013730;28;19956;-67
2022/06/05 06:44:15;;;;;;;;;;;;;;;23.89;52.26;101358.69;5001869;28;19918;-66
2022/06/05 06:46:40;;;;;;;;;;;;;;;23.89;51.76;101351.19;5039504;22;21238;-72
2022/06/05 06:49:05;;;;;;;;;;;;;;;23.88;51.91;101354.38;5010972;28;19961;-73
2022/06/05 06:51:31;;;;;;;;;;;;;;;23.87;51.02;101350.06;5013219;28;19961;-72
2022/06/05 06:53:57;;;;;;;;;;;;;;;23.84;50.74;101350.94;5005927;28;19972;-72
2022/06/05 06:56:24;;;;;;;;;;;;;;;23.73;51.38;101355.91;5011254;28;19952;-72
2022/06/05 06:58:49;;;;;;;;;;;;;;;23.76;51.07;101350.34;5013190;28;19984;-72
2022/06/05 07:01:15;;;;;;;;;;;;;;;23.67;51.68;101347.41;4994465;28;19925;-72
2022/06/05 07:03:41;;;;;;;;;;;;;;;23.66;51.76;101351.34;5009511;28;19917;-72
2022/06/05 07:06:08;;;;;;;;;;;;;;;23.77;53.02;101345.63;5005861;28;19914;-70
2022/06/05 07:08:34;;;;;;;;;;;;;;;23.88;51.16;101346.91;5012851;28;19948;-70
2022/06/05 07:10:59;;;;;;;;;;;;;;;23.90;50.39;101344.50;5011930;28;19960;-72
2022/06/05 07:13:25;;;;;;;;;;;;;;;23.78;52.64;101336.13;5012299;28;20393;-72
2022/06/05 07:15:51;;;;;;;;;;;;;;;23.81;53.11;101335.31;5005665;28;19913;-72
2022/06/05 07:18:17;;;;;;;;;;;;;;;23.87;52.51;101322.56;5010115;28;19924;-72
2022/06/05 07:20:43;;;;;;;;;;;;;;;23.87;51.57;101317.03;5010749;28;19921;-72
2022/06/05 07:23:09;;;;;;;;;;;;;;;23.92;51.34;101319.31;5011840;28;19975;-72
2022/06/05 07:25:35;;;;;;;;;;;;;;;23.97;52.40;101318.78;5005287;28;19913;-72
2022/06/05 07:28:00;;;;;;;;;;;;;;;24.03;51.61;101308.84;5005827;28;19917;-72
2022/06/05 07:30:26;;;;;;;;;;;;;;;24.24;50.99;101313.03;5007555;28;19921;-72
2022/06/05 07:32:51;;;;;;;;;;;;;;;24.32;50.05;101306.91;5012596;28;19914;-70
2022/06/05 07:35:17;;;;;;;;;;;;;;;24.39;50.87;101309.47;5005950;28;19972;-70
2022/06/05 07:37:43;;;;;;;;;;;;;;;24.48;49.47;101309.66;5007863;28;19917;-69
2022/06/05 07:40:09;;;;;;;;;;;;;;;24.64;47.20;101301.31;5009432;28;19924;-70
2022/06/05 07:42:36;;;;;;;;;;;;;;;24.47;49.39;101304.56;5011763;28;20321;-69
2022/06/05 07:45:02;;;;;;;;;;;;;;;24.64;47.92;101295.06;5010855;28;20389;-70
2022/06/05 07:47:27;;;;;;;;;;;;;;;24.58;48.66;101297.59;5007999;28;19920;-70
2022/06/05 07:49:52;;;;;;;;;;;;;;;24.60;48.58;101297.13;5009827;28;19996;-70
2022/06/05 07:55:15;;;;;;;;;;;;;;;24.87;47.30;101292.84;4985209;28;19921;-70
2022/06/05 07:57:41;;;;;;;;;;;;;;;25.01;47.39;101286.94;5005643;28;19940;-70
2022/06/05 08:00:08;;;;;;;;;;;;;;;25.12;48.39;101288.59;5005742;28;19921;-70
2022/06/05 08:02:34;;;;;;;;;;;;;;;25.23;48.18;101283.53;5002257;28;19913;-70
2022/06/05 08:05:00;;;;;;;;;;;;;;;25.35;44.13;101288.31;4996243;28;19917;-72
2022/06/05 08:07:29;;;;;;;;;;;;;;;25.36;44.81;101281.59;5007986;28;19928;-72
2022/06/05 08:09:55;;;;;;;;;;;;;;;25.41;45.22;101284.59;5007332;28;20304;-72
2022/06/05 08:12:21;;;;;;;;;;;;;;;25.58;44.92;101288.00;5003419;28;19917;-73
2022/06/05 08:14:49;;;;;;;;;;;;;;;25.59;42.25;101290.31;5004086;28;19917;-72
2022/06/05 08:17:17;;;;;;;;;;;;;;;25.43;42.94;101279.41;5007880;28;19928;-70
2022/06/05 08:19:43;;;;;;;;;;;;;;;25.46;44.56;101286.00;5004322;28;19921;-71
2022/06/05 08:22:09;;;;;;;;;;;;;;;25.57;45.57;101278.94;5007011;28;19925;-72
2022/06/05 08:24:35;;;;;;;;;;;;;;;25.80;44.82;101281.38;4997353;28;19952;-71
2022/06/05 08:27:01;;;;;;;;;;;;;;;25.99;43.71;101285.09;5007464;28;19956;-73
2022/06/05 08:29:27;;;;;;;;;;;;;;;26.10;43.59;101271.72;5005903;28;19913;-72
2022/06/05 08:31:53;;;;;;;;;;;;;;;26.18;42.67;101275.03;5007110;28;20298;-73
2022/06/05 08:34:20;;;;;;;;;;;;;;;26.12;44.26;101274.81;5006784;28;19917;-72
2022/06/05 08:36:45;;;;;;;;;;;;;;;26.23;43.58;101282.75;5009072;28;20877;-72
2022/06/05 08:41:55;;;;;;;;;;;;;;;26.45;43.77;101278.81;5005387;28;19917;-71
2022/06/05 08:44:23;;;;;;;;;;;;;;;26.54;42.67;101270.56;5004101;28;19920;-71
2022/06/05 08:47:04;;;;;;;;;;;;;;;26.71;43.84;101274.72;5020397;28;20468;-72
2022/06/05 08:49:46;;;;;;;;;;;;;;;26.82;42.90;101279.09;5006332;28;20623;-71
2022/06/05 08:52:14;;;;;;;;;;;;;;;26.93;42.27;101279.47;5004806;28;19921;-72
2022/06/05 08:54:51;;;;;;;;;;;;;;;26.99;41.14;101278.44;5007156;28;19925;-72
2022/06/05 08:57:22;;;;;;;;;;;;;;;26.95;41.19;101277.81;5008110;28;20153;-72
2022/06/05 09:00:20;;;;;;;;;;;;;;;26.86;42.88;101274.22;5007062;28;19971;-71
2022/06/05 09:02:51;;;;;;;;;;;;;;;26.94;42.17;101269.97;4962712;28;19921;-72
2022/06/05 09:05:28;;;;;;;;;;;;;;;27.06;42.02;101267.09;5006483;28;19922;-72
2022/06/05 09:07:59;;;;;;;;;;;;;;;27.32;43.41;101268.50;5004231;28;20308;-72
2022/06/05 09:10:33;;;;;;;;;;;;;;;27.54;41.58;101268.44;4999395;28;19963;-72
2022/06/05 09:13:02;;;;;;;;;;;;;;;27.49;41.26;101252.41;5001869;28;20007;-72
2022/06/05 09:15:30;;;;;;;;;;;;;;;27.73;41.88;101260.94;4997996;28;19921;-72
2022/06/05 09:17:56;;;;;;;;;;;;;;;27.79;40.49;101256.34;5001891;28;19920;-72
2022/06/05 09:20:25;;;;;;;;;;;;;;;27.81;40.78;101251.91;5005409;28;19917;-71
2022/06/05 09:22:59;;;;;;;;;;;;;;;27.77;40.47;101245.75;5006651;28;19914;-72
2022/06/05 09:25:24;;;;;;;;;;;;;;;27.92;41.30;101249.47;5005748;28;19968;-72
2022/06/05 09:28:00;;;;;;;;;;;;;;;28.02;41.44;101239.97;5007980;28;19913;-72
2022/06/05 09:30:34;;;;;;;;;;;;;;;28.10;39.55;101245.97;5004152;28;20632;-72
2022/06/05 09:33:06;;;;;;;;;;;;;;;28.15;40.18;101231.50;5004511;28;19917;-71
2022/06/05 09:35:47;;;;;;;;;;;;;;;28.25;40.66;101228.28;5005430;28;19913;-72
2022/06/05 09:38:40;;;;;;;;;;;;;;;28.38;40.74;101214.25;5004617;28;19996;-72
2022/06/05 09:41:24;;;;;;;;;;;;;;;28.55;40.63;101214.72;5005197;28;19918;-72
2022/06/05 09:43:59;;;;;;;;;;;;;;;28.84;39.73;101201.09;5021505;28;20463;-72
2022/06/05 09:46:42;;;;;;;;;;;;;;;28.96;38.83;101192.56;5006426;28;19917;-72
2022/06/05 09:49:08;;;;;;;;;;;;;;;29.01;40.26;101171.75;5003188;28;20283;-73
2022/06/05 09:51:36;;;;;;;;;;;;;;;28.99;39.70;101172.22;5002616;28;19928;-72
2022/06/05 09:54:12;;;;;;;;;;;;;;;28.96;38.99;101164.06;5006617;28;19972;-72
2022/06/05 09:59:48;;;;;;;;;;;;;;;28.96;40.21;101156.50;5002836;28;19917;-72
2022/06/05 10:02:15;;;;;;;;;;;;;;;29.13;39.89;101157.69;5007547;28;19917;-72
2022/06/05 10:04:41;;;;;;;;;;;;;;;29.19;40.06;101144.69;5000257;28;19917;-72
2022/06/05 10:07:23;;;;;;;;;;;;;;;29.32;40.64;101139.72;5006183;28;19967;-72
2022/06/05 10:09:48;;;;;;;;;;;;;;;29.40;38.44;101135.31;5008346;28;19925;-72
2022/06/05 10:12:17;;;;;;;;;;;;;;;29.35;38.40;101135.19;5005296;28;20336;-72
2022/06/05 10:14:45;;;;;;;;;;;;;;;29.34;37.31;101131.69;5005706;28;20326;-72
2022/06/05 10:17:24;;;;;;;;;;;;;;;29.45;37.36;101127.56;5001506;28;19922;-72
2022/06/05 10:19:52;;;;;;;;;;;;;;;29.46;39.41;101129.91;5005111;28;19948;-72
2022/06/05 10:22:28;;;;;;;;;;;;;;;29.38;36.97;101123.91;5006764;28;20007;-72
2022/06/05 10:25:12;;;;;;;;;;;;;;;29.74;36.55;101131.25;5000984;28;19913;-72
2022/06/05 10:27:39;;;;;;;;;;;;;;;29.58;36.63;101120.53;5007056;28;19924;-72
2022/06/05 10:30:05;;;;;;;;;;;;;;;29.73;37.34;101118.63;4994916;28;19953;-72
2022/06/05 10:32:33;;;;;;;;;;;;;;;29.72;37.34;101124.63;5007162;28;19922;-72
2022/06/05 10:35:07;;;;;;;;;;;;;;;29.81;38.67;101127.34;4997811;28;19914;-73
2022/06/05 10:37:39;;;;;;;;;;;;;;;29.68;36.53;101124.78;5004138;28;19967;-72
2022/06/05 10:40:11;;;;;;;;;;;;;;;29.71;37.03;101112.78;5009060;28;19972;-72
2022/06/05 10:42:57;;;;;;;;;;;;;;;29.91;38.47;101120.44;5004823;28;19917;-72
2022/06/05 10:45:34;;;;;;;;;;;;;;;30.22;37.06;101109.66;4991707;28;19920;-72
2022/06/05 10:48:12;;;;;;;;;;;;;;;30.32;36.65;101102.00;5009466;28;20352;-72
2022/06/05 10:50:37;;;;;;;;;;;;;;;30.22;36.18;101093.75;5001829;28;19921;-72
2022/06/05 10:53:12;;;;;;;;;;;;;;;30.22;36.49;101090.19;5009016;28;19921;-72
2022/06/05 10:55:56;;;;;;;;;;;;;;;30.29;34.93;101089.06;5007654;28;19924;-72
2022/06/05 10:58:21;;;;;;;;;;;;;;;30.35;37.16;101082.38;5007210;28;19937;-72
2022/06/05 11:00:50;;;;;;;;;;;;;;;30.33;36.95;101084.88;5005379;28;20507;-72
2022/06/05 11:03:20;;;;;;;;;;;;;;;30.58;35.76;101083.50;5009909;28;20321;-72
2022/06/05 11:06:04;;;;;;;;;;;;;;;30.68;34.75;101090.47;5007829;28;19917;-72
2022/06/05 11:08:48;;;;;;;;;;;;;;;30.57;36.04;101081.94;5008312;28;19966;-72
2022/06/05 11:14:27;;;;;;;;;;;;;;;30.80;35.37;101092.16;5005358;28;19913;-72
2022/06/05 11:17:19;;;;;;;;;;;;;;;30.84;34.83;101101.09;5005559;28;20385;-72
2022/06/05 11:19:44;;;;;;;;;;;;;;;30.67;32.63;101100.06;5004200;28;19913;-72
2022/06/05 11:22:14;;;;;;;;;;;;;;;30.87;33.47;101094.59;5007968;28;19913;-72
2022/06/05 11:24:44;;;;;;;;;;;;;;;30.97;34.22;101093.22;5004324;28;19921;-72
2022/06/05 11:27:28;;;;;;;;;;;;;;;31.04;33.62;101096.34;5009594;28;19925;-72
2022/06/05 11:29:54;;;;;;;;;;;;;;;31.16;33.90;101091.72;5012697;28;19913;-72
2022/06/05 11:32:22;;;;;;;;;;;;;;;31.11;32.67;101092.38;5011934;28;19940;-73
2022/06/05 11:34:47;;;;;;;;;;;;;;;31.27;32.63;101096.63;5008030;28;20435;-73
2022/06/05 11:37:19;;;;;;;;;;;;;;;31.26;33.24;101092.34;5027405;28;19914;-73
2022/06/05 11:40:16;;;;;;;;;;;;;;;31.32;32.56;101085.56;5012883;28;20400;-73
2022/06/05 11:42:49;;;;;;;;;;;;;;;31.26;31.21;101081.97;4998419;28;19936;-72
2022/06/05 11:45:14;;;;;;;;;;;;;;;31.20;32.48;101072.78;5007558;28;19992;-73
2022/06/05 11:47:43;;;;;;;;;;;;;;;31.08;31.44;101065.53;5012311;28;20024;-73
2022/06/05 11:50:30;;;;;;;;;;;;;;;31.05;32.24;101066.47;5005175;28;19913;-73
2022/06/05 11:53:13;;;;;;;;;;;;;;;31.02;32.14;101057.09;5011979;28;19920;-73
2022/06/05 11:55:49;;;;;;;;;;;;;;;31.26;32.70;101047.78;5008801;28;19924;-73
2022/06/05 11:58:19;;;;;;;;;;;;;;;31.25;31.46;101041.44;5010946;28;19920;-73
2022/06/05 12:00:50;;;;;;;;;;;;;;;31.27;32.92;101036.16;5011652;28;19922;-73
2022/06/05 12:03:20;;;;;;;;;;;;;;;31.27;31.66;101029.81;5012166;28;20369;-73
2022/06/05 12:06:04;;;;;;;;;;;;;;;31.05;30.77;101030.28;5006505;28;19914;-73
2022/06/05 12:08:38;;;;;;;;;;;;;;;30.97;31.11;101023.63;5003272;28;19922;-73
2022/06/05 12:11:05;;;;;;;;;;;;;;;30.94;31.32;101003.09;5009200;28;20656;-73
2022/06/05 12:13:40;;;;;;;;;;;;;;;30.90;31.18;100999.75;5007812;28;19917;-73
2022/06/05 12:16:08;;;;;;;;;;;;;;;30.79;31.08;100996.03;5004542;28;19917;-73
2022/06/05 12:18:59;;;;;;;;;;;;;;;30.69;31.44;100981.47;5002940;28;19937;-72
2022/06/05 12:21:33;;;;;;;;;;;;;;;30.66;30.85;100984.47;5010082;28;19925;-73
2022/06/05 12:23:58;;;;;;;;;;;;;;;30.63;31.66;100977.84;5002879;28;20365;-72
2022/06/05 12:26:30;;;;;;;;;;;;;;;30.59;32.50;100974.50;5009327;28;19924;-72
2022/06/05 12:29:14;;;;;;;;;;;;;;;30.66;32.60;100985.22;5011430;28;19955;-73
2022/06/05 12:31:53;;;;;;;;;;;;;;;30.61;32.62;100979.56;5008389;28;19944;-73
2022/06/05 12:34:21;;;;;;;;;;;;;;;30.50;32.44;100979.44;5009974;28;19917;-73
2022/06/05 12:36:46;;;;;;;;;;;;;;;30.61;31.55;100985.91;5008322;28;19943;-73
2022/06/05 12:39:11;;;;;;;;;;;;;;;30.63;32.04;100980.63;5009126;28;19913;-72
2022/06/05 12:41:37;;;;;;;;;;;;;;;30.46;31.16;100984.44;5009769;28;19918;-72
2022/06/05 12:44:21;;;;;;;;;;;;;;;30.38;31.06;100992.41;5011182;28;19972;-72
2022/06/05 12:46:49;;;;;;;;;;;;;;;30.46;30.22;100981.66;5005377;28;19917;-72
2022/06/05 12:49:30;;;;;;;;;;;;;;;30.41;30.80;100977.53;5000917;28;20056;-75
2022/06/05 12:52:12;;;;;;;;;;;;;;;30.20;31.80;100967.56;5005447;28;20412;-72
2022/06/05 12:54:56;;;;;;;;;;;;;;;30.19;31.47;100966.06;5007880;28;19917;-74
2022/06/05 12:57:26;;;;;;;;;;;;;;;30.11;30.84;100967.69;5009538;28;19966;-75
2022/06/05 13:00:06;;;;;;;;;;;;;;;30.20;32.78;100950.91;5005571;28;20426;-74
2022/06/05 13:02:40;;;;;;;;;;;;;;;30.19;33.18;100955.72;5007869;28;19928;-72
2022/06/05 13:05:05;;;;;;;;;;;;;;;30.07;32.13;100948.44;5003021;28;19920;-72